Alexandria, New Hampshire
Current Conditions -  °F | °C
As of 11:35 PM on Friday 24 Oct 2014 (Local Time) from K1P1 Reporting Station
Clear Clear  
Wind Chill: 43°   Ceiling: Unl
Heat Index: 46°   Visibility: 10mi
Dew Point: 43°   Wind: 7mph
Humidity: 87%   Direction: 280°W
Pressure: 29.75"   Gusts: NA
Location:  43.6264°N, 71.7826°W
Report Text: K1P1 250335Z AUTO 28006KT 10SM CLR 08/06 A2975 RMK AO2 T00800060
Loading
Personal Weather Stations






























Interactive Weather Map
Tropical Storm Tracking
New forecast layout! Learn more

10-Day Weather Forecast

Advertisements
Track Severe Weather on mobile